Time;durP1;ratioP1;P1;durP2;ratioP2;P2;SDS_P1;SDS_P2;PMS_P1;PMS_P2;Temp;Humidity;BMP_temperature;BMP_pressure;BME280_temperature;BME280_humidity;BME280_pressure;Samples;Min_cycle;Max_cycle;Signal;HPM_P1;HPM_P2
2022/04/24 00:01:34;;;;;;;3.65;3.33;;;;;;;;;;5070752;28;20029;-49
2022/04/24 00:04:00;;;;;;;5.07;4.00;;;;;;;;;;5070819;28;20120;-47
2022/04/24 00:06:26;;;;;;;4.18;3.53;;;;;;;;;;5071036;28;20025;-47
2022/04/24 00:08:52;;;;;;;5.15;3.22;;;;;;;;;;5070655;28;20029;-46
2022/04/24 00:11:19;;;;;;;4.43;3.75;;;;;;;;;;5071329;28;20071;-47
2022/04/24 00:13:45;;;;;;;4.28;3.22;;;;;;;;;;5070527;28;20032;-48
2022/04/24 00:16:11;;;;;;;4.00;3.50;;;;;;;;;;5071472;28;20021;-47
2022/04/24 00:18:38;;;;;;;4.45;3.20;;;;;;;;;;5070760;28;20028;-48
2022/04/24 00:21:07;;;;;;;3.97;3.47;;;;;;;;;;5071304;28;20486;-48
2022/04/24 00:23:33;;;;;;;6.07;3.47;;;;;;;;;;5070645;28;20054;-51
2022/04/24 00:25:59;;;;;;;5.65;2.90;;;;;;;;;;5071348;28;20478;-49
2022/04/24 00:28:25;;;;;;;3.85;3.00;;;;;;;;;;5071449;28;20049;-48
2022/04/24 00:30:51;;;;;;;3.75;3.08;;;;;;;;;;5070407;28;20454;-48
2022/04/24 00:33:17;;;;;;;5.07;3.35;;;;;;;;;;5071928;28;20028;-48
2022/04/24 00:35:43;;;;;;;3.72;3.00;;;;;;;;;;5070422;28;20035;-48
2022/04/24 00:38:09;;;;;;;4.78;3.58;;;;;;;;;;5071635;28;20029;-50
2022/04/24 00:40:35;;;;;;;5.88;3.40;;;;;;;;;;5070674;28;20108;-48
2022/04/24 00:43:01;;;;;;;4.22;3.25;;;;;;;;;;5071432;28;20029;-48
2022/04/24 00:45:28;;;;;;;4.53;3.40;;;;;;;;;;5071257;28;20108;-52
2022/04/24 00:47:54;;;;;;;5.22;3.78;;;;;;;;;;5070571;28;20040;-50
2022/04/24 00:50:20;;;;;;;4.00;3.45;;;;;;;;;;5070439;28;20033;-49
2022/04/24 00:52:47;;;;;;;4.00;2.88;;;;;;;;;;5073790;28;20051;-49
2022/04/24 00:55:13;;;;;;;4.07;3.17;;;;;;;;;;5074554;28;20493;-50
2022/04/24 00:57:41;;;;;;;3.70;3.10;;;;;;;;;;5074106;28;20048;-49
2022/04/24 01:00:08;;;;;;;3.60;3.05;;;;;;;;;;5075279;28;20028;-50
2022/04/24 01:02:34;;;;;;;3.42;3.13;;;;;;;;;;5074881;28;20030;-51
2022/04/24 01:05:00;;;;;;;4.15;3.20;;;;;;;;;;5074662;28;20017;-50
2022/04/24 01:07:26;;;;;;;4.30;3.10;;;;;;;;;;5075008;28;20028;-50
2022/04/24 01:09:52;;;;;;;4.07;3.10;;;;;;;;;;5074184;28;20024;-48
2022/04/24 01:12:18;;;;;;;3.42;2.70;;;;;;;;;;5074487;28;20032;-50
2022/04/24 01:14:44;;;;;;;4.13;3.00;;;;;;;;;;5073995;28;20016;-51
2022/04/24 01:17:11;;;;;;;3.50;2.95;;;;;;;;;;5074674;28;20047;-48
2022/04/24 01:19:37;;;;;;;4.72;3.55;;;;;;;;;;5073947;28;20034;-49
2022/04/24 01:22:03;;;;;;;3.78;3.30;;;;;;;;;;5074520;28;20115;-48
2022/04/24 01:24:30;;;;;;;3.63;2.97;;;;;;;;;;5074726;28;20097;-49
2022/04/24 01:26:55;;;;;;;3.95;3.10;;;;;;;;;;5073145;28;20130;-48
2022/04/24 01:29:22;;;;;;;3.70;2.90;;;;;;;;;;5074457;28;20021;-49
2022/04/24 01:31:48;;;;;;;3.78;2.83;;;;;;;;;;5073420;28;20086;-49
2022/04/24 01:34:14;;;;;;;3.35;2.78;;;;;;;;;;5074432;28;20107;-49
2022/04/24 01:36:41;;;;;;;3.75;3.00;;;;;;;;;;5073437;28;20023;-48
2022/04/24 01:39:07;;;;;;;3.78;2.97;;;;;;;;;;5074449;28;20441;-48
2022/04/24 01:41:33;;;;;;;3.90;3.13;;;;;;;;;;5074482;28;20598;-56
2022/04/24 01:43:59;;;;;;;3.42;2.90;;;;;;;;;;5074139;28;20021;-48
2022/04/24 01:46:25;;;;;;;3.53;2.95;;;;;;;;;;5074314;28;20056;-49
2022/04/24 01:48:51;;;;;;;4.53;2.95;;;;;;;;;;5073210;28;20036;-48
2022/04/24 01:51:17;;;;;;;5.63;3.67;;;;;;;;;;5074040;28;20127;-49
2022/04/24 01:53:44;;;;;;;3.65;3.03;;;;;;;;;;5073423;28;20107;-49
2022/04/24 01:56:11;;;;;;;3.83;3.25;;;;;;;;;;5074066;28;20052;-48
2022/04/24 01:58:38;;;;;;;2.60;2.40;;;;;;;;;;5073316;28;20087;-55
2022/04/24 02:01:04;;;;;;;3.58;3.10;;;;;;;;;;5073875;28;20097;-49
2022/04/24 02:03:30;;;;;;;3.40;3.08;;;;;;;;;;5072878;28;20100;-48
2022/04/24 02:05:57;;;;;;;3.70;2.92;;;;;;;;;;5072683;28;20505;-52
2022/04/24 02:08:23;;;;;;;7.25;3.20;;;;;;;;;;5073018;28;20367;-48
2022/04/24 02:10:49;;;;;;;3.47;2.85;;;;;;;;;;5073107;28;20039;-48
2022/04/24 02:13:15;;;;;;;3.97;2.85;;;;;;;;;;5073600;28;20082;-48
2022/04/24 02:15:41;;;;;;;3.88;3.00;;;;;;;;;;5071684;28;20028;-48
2022/04/24 02:18:08;;;;;;;3.78;2.97;;;;;;;;;;5073401;28;20032;-48
2022/04/24 02:20:34;;;;;;;3.13;2.63;;;;;;;;;;5073727;28;20103;-48
2022/04/24 02:23:00;;;;;;;4.13;3.40;;;;;;;;;;5073006;28;20051;-48
2022/04/24 02:25:26;;;;;;;4.20;3.30;;;;;;;;;;5073759;28;20025;-48
2022/04/24 02:27:53;;;;;;;4.15;3.00;;;;;;;;;;5072162;28;20049;-53
2022/04/24 02:30:20;;;;;;;4.35;3.17;;;;;;;;;;5073633;28;20118;-48
2022/04/24 02:32:46;;;;;;;3.30;2.90;;;;;;;;;;5072090;28;20036;-48
2022/04/24 02:35:12;;;;;;;3.17;2.72;;;;;;;;;;5073213;28;20474;-51
2022/04/24 02:37:38;;;;;;;4.45;3.33;;;;;;;;;;5072391;28;20385;-55
2022/04/24 02:40:09;;;;;;;4.70;3.30;;;;;;;;;;5072136;28;20020;-50
2022/04/24 02:42:36;;;;;;;4.75;3.33;;;;;;;;;;5072853;28;20474;-48
2022/04/24 02:45:03;;;;;;;3.45;3.15;;;;;;;;;;5072922;28;20028;-48
2022/04/24 02:47:29;;;;;;;3.80;3.30;;;;;;;;;;5072931;28;20029;-48
2022/04/24 02:49:55;;;;;;;3.33;2.80;;;;;;;;;;5072306;28;20063;-48
2022/04/24 02:52:21;;;;;;;3.45;3.10;;;;;;;;;;5072374;28;20079;-48
2022/04/24 02:54:47;;;;;;;3.75;3.00;;;;;;;;;;5072186;28;20033;-48
2022/04/24 02:57:13;;;;;;;3.42;3.05;;;;;;;;;;5072901;28;20025;-49
2022/04/24 02:59:42;;;;;;;3.50;2.67;;;;;;;;;;5072765;28;20029;-55
2022/04/24 03:02:09;;;;;;;3.92;3.55;;;;;;;;;;5071451;28;20378;-49
2022/04/24 03:04:35;;;;;;;4.15;3.35;;;;;;;;;;5072323;28;20021;-49
2022/04/24 03:07:01;;;;;;;3.80;3.22;;;;;;;;;;5071964;28;20033;-49
2022/04/24 03:09:27;;;;;;;3.30;2.95;;;;;;;;;;5072832;28;20028;-50
2022/04/24 03:11:53;;;;;;;3.55;3.15;;;;;;;;;;5071484;28;20043;-49
2022/04/24 03:14:19;;;;;;;3.47;2.95;;;;;;;;;;5072284;28;20024;-49
2022/04/24 03:16:45;;;;;;;4.40;3.15;;;;;;;;;;5071606;28;20461;-48
2022/04/24 03:19:11;;;;;;;4.50;3.30;;;;;;;;;;5072550;28;20040;-50
2022/04/24 03:21:37;;;;;;;3.50;2.90;;;;;;;;;;5072197;28;20032;-49
2022/04/24 03:24:03;;;;;;;3.35;3.05;;;;;;;;;;5071713;28;20538;-48
2022/04/24 03:26:29;;;;;;;4.07;2.90;;;;;;;;;;5071306;28;20086;-50
2022/04/24 03:28:56;;;;;;;3.30;3.00;;;;;;;;;;5071199;28;20029;-52
2022/04/24 03:31:23;;;;;;;3.97;2.70;;;;;;;;;;5072185;28;20116;-49
2022/04/24 03:33:49;;;;;;;3.97;3.38;;;;;;;;;;5071046;28;20021;-48
2022/04/24 03:36:15;;;;;;;3.42;3.13;;;;;;;;;;5072073;28;20040;-48
2022/04/24 03:38:41;;;;;;;3.80;3.00;;;;;;;;;;5071596;28;20020;-54
2022/04/24 03:41:08;;;;;;;4.93;3.08;;;;;;;;;;5071384;28;20028;-48
2022/04/24 03:43:34;;;;;;;4.13;3.63;;;;;;;;;;5072289;28;20063;-48
2022/04/24 03:46:00;;;;;;;3.53;2.97;;;;;;;;;;5071581;28;20188;-48
2022/04/24 03:48:26;;;;;;;3.97;3.30;;;;;;;;;;5071894;28;20028;-48
2022/04/24 03:50:52;;;;;;;3.40;2.95;;;;;;;;;;5070955;28;20470;-48
2022/04/24 03:53:18;;;;;;;3.40;2.80;;;;;;;;;;5071535;28;20029;-48
2022/04/24 03:55:45;;;;;;;4.38;3.10;;;;;;;;;;5071576;28;20033;-55
2022/04/24 03:58:11;;;;;;;3.35;2.85;;;;;;;;;;5071933;28;20362;-48
2022/04/24 04:00:37;;;;;;;3.40;3.03;;;;;;;;;;5071470;28;20032;-48
2022/04/24 04:03:03;;;;;;;4.80;2.88;;;;;;;;;;5069377;28;20086;-48
2022/04/24 04:05:29;;;;;;;3.10;2.70;;;;;;;;;;5071738;28;20040;-49
2022/04/24 04:07:56;;;;;;;3.08;2.78;;;;;;;;;;5070793;28;20039;-48
2022/04/24 04:10:22;;;;;;;4.95;3.25;;;;;;;;;;5071639;28;20032;-50
2022/04/24 04:12:51;;;;;;;3.50;2.90;;;;;;;;;;5070882;28;20028;-48
2022/04/24 04:15:18;;;;;;;3.70;2.85;;;;;;;;;;5071657;28;20036;-49
2022/04/24 04:17:44;;;;;;;3.22;2.90;;;;;;;;;;5071549;28;20024;-55
2022/04/24 04:20:11;;;;;;;3.75;3.08;;;;;;;;;;5071391;28;20074;-48
2022/04/24 04:22:51;;;;;;;4.68;2.97;;;;;;;;;;5071786;28;20027;-49
2022/04/24 04:25:18;;;;;;;3.80;3.15;;;;;;;;;;5071778;28;20016;-49
2022/04/24 04:27:44;;;;;;;3.97;3.20;;;;;;;;;;5073684;28;20382;-55
2022/04/24 04:30:10;;;;;;;4.13;3.00;;;;;;;;;;5075029;28;20036;-49
2022/04/24 04:32:36;;;;;;;4.38;3.20;;;;;;;;;;5075556;28;20505;-48
2022/04/24 04:35:04;;;;;;;3.75;3.35;;;;;;;;;;5074726;28;20139;-50
2022/04/24 04:37:31;;;;;;;4.13;2.83;;;;;;;;;;5075261;28;20032;-49
2022/04/24 04:39:57;;;;;;;3.30;2.90;;;;;;;;;;5074003;28;20025;-48
2022/04/24 04:42:23;;;;;;;3.20;2.90;;;;;;;;;;5075703;28;20047;-50
2022/04/24 04:44:49;;;;;;;3.40;2.92;;;;;;;;;;5074379;28;20029;-50
2022/04/24 04:47:15;;;;;;;4.25;3.47;;;;;;;;;;5075432;28;20091;-56
2022/04/24 04:49:41;;;;;;;3.95;2.83;;;;;;;;;;5075008;28;20485;-52
2022/04/24 04:52:07;;;;;;;3.78;3.00;;;;;;;;;;5063572;28;20121;-52
2022/04/24 04:54:34;;;;;;;4.13;2.70;;;;;;;;;;5075224;28;20381;-48
2022/04/24 04:57:00;;;;;;;3.17;2.55;;;;;;;;;;5074155;28;20114;-52
2022/04/24 04:59:26;;;;;;;3.80;3.30;;;;;;;;;;5074645;28;20021;-51
2022/04/24 05:01:52;;;;;;;4.18;2.97;;;;;;;;;;5073678;28;20028;-48
2022/04/24 05:04:18;;;;;;;2.63;2.42;;;;;;;;;;5074686;28;20100;-48
2022/04/24 05:06:44;;;;;;;3.33;2.90;;;;;;;;;;5074951;28;20052;-49
2022/04/24 05:09:10;;;;;;;3.22;2.92;;;;;;;;;;5072854;28;20135;-48
2022/04/24 05:11:39;;;;;;;3.83;3.15;;;;;;;;;;5073237;28;20041;-48
2022/04/24 05:14:05;;;;;;;2.97;2.42;;;;;;;;;;5074244;28;20024;-49
2022/04/24 05:16:31;;;;;;;2.80;2.47;;;;;;;;;;5074944;28;20074;-49
2022/04/24 05:18:58;;;;;;;2.95;2.30;;;;;;;;;;5073963;28;20519;-49
2022/04/24 05:21:24;;;;;;;2.95;2.58;;;;;;;;;;5073368;28;20401;-49
2022/04/24 05:23:52;;;;;;;3.90;2.80;;;;;;;;;;5073977;28;20028;-49
2022/04/24 05:26:18;;;;;;;2.97;2.53;;;;;;;;;;5074890;28;20032;-47
2022/04/24 05:28:45;;;;;;;3.88;2.53;;;;;;;;;;5074050;28;20044;-47
2022/04/24 05:31:11;;;;;;;3.15;2.40;;;;;;;;;;5073699;28;20516;-48
2022/04/24 05:33:37;;;;;;;3.00;2.45;;;;;;;;;;5074203;28;20494;-47
2022/04/24 05:36:04;;;;;;;2.85;2.35;;;;;;;;;;5073788;28;20020;-47
2022/04/24 05:38:30;;;;;;;4.57;2.17;;;;;;;;;;5074290;28;20029;-48
2022/04/24 05:40:56;;;;;;;3.15;2.40;;;;;;;;;;5073218;28;20120;-48
2022/04/24 05:43:22;;;;;;;2.38;2.00;;;;;;;;;;5074339;28;20021;-50
2022/04/24 05:45:48;;;;;;;2.30;1.98;;;;;;;;;;5073962;28;20466;-55
2022/04/24 05:48:15;;;;;;;2.70;2.40;;;;;;;;;;5074235;28;20028;-48
2022/04/24 05:50:41;;;;;;;3.30;2.22;;;;;;;;;;5074091;28;20037;-48
2022/04/24 05:53:07;;;;;;;19.05;2.30;;;;;;;;;;5073515;28;20082;-49
2022/04/24 05:55:33;;;;;;;4.18;2.17;;;;;;;;;;5073509;28;20028;-48
2022/04/24 05:57:59;;;;;;;2.08;1.85;;;;;;;;;;5072638;28;20052;-52
2022/04/24 06:00:26;;;;;;;2.70;1.90;;;;;;;;;;5073621;28;20030;-51
2022/04/24 06:02:55;;;;;;;1.92;1.58;;;;;;;;;;5073172;28;20028;-57
2022/04/24 06:05:21;;;;;;;2.10;1.90;;;;;;;;;;5074606;28;20028;-52
2022/04/24 06:07:47;;;;;;;3.75;2.10;;;;;;;;;;5074266;28;20024;-52
2022/04/24 06:10:13;;;;;;;2.50;1.92;;;;;;;;;;5073338;28;20112;-52
2022/04/24 06:12:45;;;;;;;2.50;1.75;;;;;;;;;;5073104;28;20790;-48
2022/04/24 06:15:15;;;;;;;2.17;1.75;;;;;;;;;;5072563;28;20021;-52
2022/04/24 06:17:42;;;;;;;2.05;1.60;;;;;;;;;;5073607;28;20060;-48
2022/04/24 06:20:08;;;;;;;2.65;1.80;;;;;;;;;;5072582;28;20020;-48
2022/04/24 06:22:44;;;;;;;1.95;1.70;;;;;;;;;;5072088;28;20081;-48
2022/04/24 06:25:15;;;;;;;1.48;1.38;;;;;;;;;;5072942;28;20054;-49
2022/04/24 06:27:41;;;;;;;2.00;1.60;;;;;;;;;;5073099;28;20049;-48
2022/04/24 06:30:07;;;;;;;2.05;1.70;;;;;;;;;;5072032;28;20036;-48
2022/04/24 06:32:38;;;;;;;2.58;1.70;;;;;;;;;;5072798;28;20028;-48
2022/04/24 06:35:05;;;;;;;1.30;1.20;;;;;;;;;;5072736;28;20154;-50
2022/04/24 06:37:31;;;;;;;1.88;1.60;;;;;;;;;;5073489;28;20032;-49
2022/04/24 06:39:56;;;;;;;2.03;1.42;;;;;;;;;;5072478;28;20024;-50
2022/04/24 06:42:22;;;;;;;1.55;1.40;;;;;;;;;;5072704;28;20028;-48
2022/04/24 06:44:49;;;;;;;2.25;1.60;;;;;;;;;;5072564;28;20091;-48
2022/04/24 06:47:15;;;;;;;2.08;1.40;;;;;;;;;;5072380;28;20112;-48
2022/04/24 06:49:41;;;;;;;2.10;1.35;;;;;;;;;;5072754;28;20092;-48
2022/04/24 06:52:07;;;;;;;1.83;1.35;;;;;;;;;;5072002;28;20115;-49
2022/04/24 06:54:33;;;;;;;2.13;1.58;;;;;;;;;;5072770;28;20036;-48
2022/04/24 06:57:01;;;;;;;2.75;1.40;;;;;;;;;;5071228;28;20075;-48
2022/04/24 06:59:27;;;;;;;1.77;1.23;;;;;;;;;;5070722;28;20024;-50
2022/04/24 07:01:54;;;;;;;1.80;1.60;;;;;;;;;;5073224;28;20020;-55
2022/04/24 07:04:20;;;;;;;2.05;1.40;;;;;;;;;;5071600;28;20016;-49
2022/04/24 07:06:46;;;;;;;2.83;1.58;;;;;;;;;;5071139;28;20027;-48
2022/04/24 07:09:12;;;;;;;1.58;1.30;;;;;;;;;;5066760;28;20100;-47
2022/04/24 07:11:40;;;;;;;2.10;1.25;;;;;;;;;;5070641;28;20113;-49
2022/04/24 07:14:06;;;;;;;2.95;1.40;;;;;;;;;;5072770;28;20032;-52
2022/04/24 07:16:35;;;;;;;2.13;1.10;;;;;;;;;;5070952;28;20028;-49
2022/04/24 07:19:01;;;;;;;1.45;1.10;;;;;;;;;;5070626;28;20162;-49
2022/04/24 07:21:27;;;;;;;1.58;1.20;;;;;;;;;;5069442;28;20107;-47
2022/04/24 07:23:53;;;;;;;1.67;1.38;;;;;;;;;;5070245;28;20505;-55
2022/04/24 07:26:19;;;;;;;2.25;1.20;;;;;;;;;;5070868;28;20028;-47
2022/04/24 07:28:45;;;;;;;1.52;1.13;;;;;;;;;;5069772;28;20163;-47
2022/04/24 07:31:14;;;;;;;1.50;1.20;;;;;;;;;;5066719;28;20035;-48
2022/04/24 07:33:40;;;;;;;1.67;1.30;;;;;;;;;;5071908;28;20114;-47
2022/04/24 07:36:06;;;;;;;2.35;1.42;;;;;;;;;;5071181;28;20045;-48
2022/04/24 07:38:32;;;;;;;1.83;1.23;;;;;;;;;;5070587;28;20060;-49
2022/04/24 07:40:59;;;;;;;3.40;1.00;;;;;;;;;;5070899;28;20028;-54
2022/04/24 07:43:25;;;;;;;3.00;1.05;;;;;;;;;;5068897;28;20035;-49
2022/04/24 07:45:51;;;;;;;3.63;1.30;;;;;;;;;;5070321;28;20029;-49
2022/04/24 07:48:17;;;;;;;1.55;1.20;;;;;;;;;;5070268;28;20109;-47
2022/04/24 07:50:45;;;;;;;1.50;1.40;;;;;;;;;;5069040;28;20036;-47
2022/04/24 07:53:11;;;;;;;1.70;1.23;;;;;;;;;;5069280;28;20020;-47
2022/04/24 07:55:40;;;;;;;1.00;0.90;;;;;;;;;;5071757;28;20017;-47
2022/04/24 07:58:06;;;;;;;1.73;1.08;;;;;;;;;;5067003;28;20070;-47
2022/04/24 08:00:32;;;;;;;1.30;0.85;;;;;;;;;;5069078;28;20028;-49
2022/04/24 08:03:02;;;;;;;1.20;0.95;;;;;;;;;;5065911;28;20481;-53
2022/04/24 08:05:31;;;;;;;0.80;0.80;;;;;;;;;;5071657;28;20478;-47
2022/04/24 08:07:58;;;;;;;2.35;0.82;;;;;;;;;;5069513;28;20021;-55
2022/04/24 08:10:25;;;;;;;1.00;0.90;;;;;;;;;;5070879;28;20028;-48
2022/04/24 08:12:51;;;;;;;0.82;0.73;;;;;;;;;;5068149;28;20406;-47
2022/04/24 08:15:17;;;;;;;1.67;0.90;;;;;;;;;;5069680;28;20032;-48
2022/04/24 08:17:43;;;;;;;1.05;0.75;;;;;;;;;;5071108;28;20040;-48
2022/04/24 08:20:11;;;;;;;1.45;1.30;;;;;;;;;;5070189;28;20021;-47
2022/04/24 08:22:40;;;;;;;1.10;0.85;;;;;;;;;;5070832;28;20095;-51
2022/04/24 08:25:07;;;;;;;1.15;0.75;;;;;;;;;;5070294;28;20024;-49
2022/04/24 08:27:33;;;;;;;2.38;1.50;;;;;;;;;;5070587;28;20052;-47
2022/04/24 08:30:00;;;;;;;1.23;1.13;;;;;;;;;;5067039;28;20027;-54
2022/04/24 08:32:26;;;;;;;1.00;0.70;;;;;;;;;;5070483;28;20029;-49
2022/04/24 08:34:52;;;;;;;2.63;0.98;;;;;;;;;;5070602;28;20028;-47
2022/04/24 08:37:18;;;;;;;2.60;0.90;;;;;;;;;;5067304;28;20025;-48
2022/04/24 08:39:44;;;;;;;1.30;0.82;;;;;;;;;;5070856;28;20025;-50
2022/04/24 08:42:10;;;;;;;0.73;0.70;;;;;;;;;;5068585;28;20081;-47
2022/04/24 08:44:37;;;;;;;1.08;0.70;;;;;;;;;;5070957;28;20060;-47
2022/04/24 08:47:03;;;;;;;1.42;0.85;;;;;;;;;;5069726;28;20043;-50
2022/04/24 08:49:33;;;;;;;0.70;0.60;;;;;;;;;;5070813;28;20039;-47
2022/04/24 08:51:59;;;;;;;1.38;0.68;;;;;;;;;;5070192;28;20386;-54
2022/04/24 08:54:27;;;;;;;1.00;0.90;;;;;;;;;;5070583;28;20028;-48
2022/04/24 08:56:56;;;;;;;0.98;0.70;;;;;;;;;;5071127;28;20053;-47
2022/04/24 08:59:22;;;;;;;1.13;0.80;;;;;;;;;;5069747;28;20094;-49
2022/04/24 09:01:50;;;;;;;0.80;0.50;;;;;;;;;;5069852;28;20028;-48
2022/04/24 09:04:16;;;;;;;1.83;0.70;;;;;;;;;;5069599;28;20040;-47
2022/04/24 09:06:42;;;;;;;0.63;0.63;;;;;;;;;;5070833;28;20040;-50
2022/04/24 09:09:08;;;;;;;0.60;0.57;;;;;;;;;;5070053;28;20060;-48
2022/04/24 09:11:35;;;;;;;1.15;0.70;;;;;;;;;;5070790;28;20482;-47
2022/04/24 09:14:14;;;;;;;1.23;0.90;;;;;;;;;;5073419;28;20366;-54
2022/04/24 09:16:47;;;;;;;0.65;0.63;;;;;;;;;;5074454;28;20024;-49
2022/04/24 09:19:21;;;;;;;1.63;0.70;;;;;;;;;;5073611;28;20550;-50
2022/04/24 09:21:48;;;;;;;1.17;0.70;;;;;;;;;;5074182;28;20024;-51
2022/04/24 09:24:15;;;;;;;1.73;0.70;;;;;;;;;;5073278;28;20029;-47
2022/04/24 09:27:01;;;;;;;0.85;0.85;;;;;;;;;;5073855;28;20525;-47
2022/04/24 09:29:27;;;;;;;1.23;0.90;;;;;;;;;;5073882;28;20029;-47
2022/04/24 09:31:53;;;;;;;0.98;0.65;;;;;;;;;;5073876;28;20470;-50
2022/04/24 09:34:20;;;;;;;2.22;0.70;;;;;;;;;;5073563;28;20109;-48
2022/04/24 09:36:47;;;;;;;1.73;0.75;;;;;;;;;;5074078;28;20147;-46
2022/04/24 09:39:13;;;;;;;0.73;0.50;;;;;;;;;;5073197;28;20028;-47
2022/04/24 09:41:39;;;;;;;0.98;0.50;;;;;;;;;;5073896;28;20020;-47
2022/04/24 09:44:15;;;;;;;0.45;0.43;;;;;;;;;;5072926;28;20027;-54
2022/04/24 09:46:41;;;;;;;0.90;0.80;;;;;;;;;;5073086;28;20477;-47
2022/04/24 09:49:08;;;;;;;0.60;0.45;;;;;;;;;;5072720;28;20416;-47
2022/04/24 09:51:39;;;;;;;0.60;0.60;;;;;;;;;;5073354;28;20039;-47
2022/04/24 09:54:05;;;;;;;0.95;0.60;;;;;;;;;;5072629;28;20020;-55
2022/04/24 09:56:32;;;;;;;0.57;0.40;;;;;;;;;;5073557;28;20488;-49
2022/04/24 09:58:58;;;;;;;0.65;0.60;;;;;;;;;;5073116;28;20020;-48
2022/04/24 10:01:25;;;;;;;0.80;0.50;;;;;;;;;;5072535;28;20665;-48
2022/04/24 10:03:51;;;;;;;1.27;0.60;;;;;;;;;;5072988;28;20027;-47
2022/04/24 10:06:17;;;;;;;12.60;1.00;;;;;;;;;;5072555;28;20024;-49
2022/04/24 10:08:44;;;;;;;1.80;0.73;;;;;;;;;;5073421;28;20108;-50
2022/04/24 10:11:11;;;;;;;1.30;0.80;;;;;;;;;;5072791;28;20041;-47
2022/04/24 10:13:39;;;;;;;2.05;1.02;;;;;;;;;;5073620;28;20059;-47
2022/04/24 10:16:05;;;;;;;0.52;0.40;;;;;;;;;;5073067;28;20377;-54
2022/04/24 10:18:37;;;;;;;2.78;0.65;;;;;;;;;;5073115;28;20028;-48
2022/04/24 10:21:22;;;;;;;3.85;0.70;;;;;;;;;;5073467;28;20036;-54
2022/04/24 10:23:48;;;;;;;1.67;0.70;;;;;;;;;;5072154;28;20044;-48
2022/04/24 10:26:32;;;;;;;3.28;0.68;;;;;;;;;;5072538;28;20106;-46
2022/04/24 10:29:04;;;;;;;1.92;0.70;;;;;;;;;;5073098;28;20482;-47
2022/04/24 10:31:40;;;;;;;1.25;0.52;;;;;;;;;;5072620;28;20067;-48
2022/04/24 10:34:07;;;;;;;2.05;0.70;;;;;;;;;;5071752;28;20020;-54
2022/04/24 10:36:33;;;;;;;1.00;0.55;;;;;;;;;;5073085;28;20123;-50
2022/04/24 10:39:00;;;;;;;3.85;0.80;;;;;;;;;;5072736;28;20032;-48
2022/04/24 10:41:30;;;;;;;2.35;0.70;;;;;;;;;;5071826;28;20593;-46
2022/04/24 10:44:08;;;;;;;3.63;0.60;;;;;;;;;;5073167;28;20063;-48
2022/04/24 10:46:38;;;;;;;4.32;0.50;;;;;;;;;;5073094;28;20048;-48
2022/04/24 10:49:11;;;;;;;2.70;0.90;;;;;;;;;;5075198;28;20484;-49
2022/04/24 10:51:39;;;;;;;8.52;2.15;;;;;;;;;;5073516;28;20029;-49
2022/04/24 10:54:11;;;;;;;14.85;3.65;;;;;;;;;;5073210;28;20017;-55
2022/04/24 10:56:38;;;;;;;12.93;2.40;;;;;;;;;;5072587;28;20032;-47
2022/04/24 10:59:16;;;;;;;9.02;2.75;;;;;;;;;;5072532;28;20177;-50
2022/04/24 11:01:43;;;;;;;7.10;1.77;;;;;;;;;;5072542;28;20025;-47
2022/04/24 11:04:10;;;;;;;3.22;1.15;;;;;;;;;;5071703;28;20377;-56
2022/04/24 11:06:36;;;;;;;5.53;1.92;;;;;;;;;;5072543;28;20469;-48
2022/04/24 11:09:09;;;;;;;4.82;1.38;;;;;;;;;;5072810;28;20035;-52
2022/04/24 11:11:48;;;;;;;4.28;2.03;;;;;;;;;;5072337;28;20039;-47
2022/04/24 11:14:18;;;;;;;4.95;1.88;;;;;;;;;;5071763;28;20027;-51
2022/04/24 11:16:51;;;;;;;9.15;1.55;;;;;;;;;;5072850;28;20059;-48
2022/04/24 11:19:27;;;;;;;7.50;2.00;;;;;;;;;;5071011;28;20043;-50
2022/04/24 11:22:03;;;;;;;6.55;1.30;;;;;;;;;;5071999;28;20038;-47
2022/04/24 11:24:31;;;;;;;2.85;1.05;;;;;;;;;;5070534;28;20028;-46
2022/04/24 11:26:58;;;;;;;4.47;1.17;;;;;;;;;;5071248;28;20045;-47
2022/04/24 11:29:24;;;;;;;4.65;1.33;;;;;;;;;;5071110;28;20419;-47
2022/04/24 11:31:52;;;;;;;6.05;1.33;;;;;;;;;;5072288;28;20174;-48
2022/04/24 11:34:19;;;;;;;3.55;1.27;;;;;;;;;;5071323;28;20028;-49
2022/04/24 11:36:45;;;;;;;6.53;1.40;;;;;;;;;;5071719;28;20039;-46
2022/04/24 11:39:12;;;;;;;3.85;1.33;;;;;;;;;;5071440;28;20025;-53
2022/04/24 11:41:39;;;;;;;8.68;1.77;;;;;;;;;;5071975;28;20056;-49
2022/04/24 11:52:20;;;;;;;7.47;1.50;;;;;;;;;;5069605;28;20044;-47
2022/04/24 11:54:47;;;;;;;6.90;1.20;;;;;;;;;;5071146;28;20039;-49
2022/04/24 11:57:14;;;;;;;4.05;1.00;;;;;;;;;;5070370;28;20470;-55
2022/04/24 11:59:40;;;;;;;3.08;1.63;;;;;;;;;;5071441;28;20039;-48
2022/04/24 12:02:07;;;;;;;4.38;1.13;;;;;;;;;;5071862;28;20028;-47
2022/04/24 12:04:38;;;;;;;3.92;1.10;;;;;;;;;;5070628;28;20150;-48
2022/04/24 12:07:05;;;;;;;3.13;1.00;;;;;;;;;;5071207;28;20465;-51
2022/04/24 12:09:31;;;;;;;4.70;1.60;;;;;;;;;;5070654;28;20090;-48
2022/04/24 12:12:26;;;;;;;4.07;0.80;;;;;;;;;;5071695;28;20036;-47
2022/04/24 12:14:52;;;;;;;1.58;1.15;;;;;;;;;;5043553;28;20505;-47
2022/04/24 12:17:18;;;;;;;4.30;0.90;;;;;;;;;;5053635;28;20067;-51
2022/04/24 12:19:52;;;;;;;5.55;1.08;;;;;;;;;;5071805;28;20025;-47
2022/04/24 12:22:26;;;;;;;4.90;0.80;;;;;;;;;;5070872;28;20056;-47
2022/04/24 12:24:51;;;;;;;3.33;1.13;;;;;;;;;;5071652;28;20024;-46
2022/04/24 12:27:18;;;;;;;2.97;1.10;;;;;;;;;;5069852;28;20045;-48
2022/04/24 12:29:45;;;;;;;1.58;0.77;;;;;;;;;;5071618;28;20028;-47
2022/04/24 12:32:14;;;;;;;3.33;0.85;;;;;;;;;;5070907;28;20036;-55
2022/04/24 12:34:40;;;;;;;2.83;0.73;;;;;;;;;;5071430;28;20471;-48
2022/04/24 12:37:07;;;;;;;1.67;0.90;;;;;;;;;;5071053;28;20024;-49
2022/04/24 12:39:33;;;;;;;10.27;1.77;;;;;;;;;;5070729;28;20043;-47
2022/04/24 12:41:59;;;;;;;2.05;0.90;;;;;;;;;;5071502;28;20035;-47
2022/04/24 12:44:25;;;;;;;1.95;0.73;;;;;;;;;;5070423;28;20038;-49
2022/04/24 12:46:51;;;;;;;1.58;0.90;;;;;;;;;;5071437;28;20025;-47
2022/04/24 12:49:28;;;;;;;2.50;0.80;;;;;;;;;;5074353;28;20052;-47
2022/04/24 12:51:54;;;;;;;2.42;0.93;;;;;;;;;;5074896;28;20031;-47
2022/04/24 12:54:20;;;;;;;3.63;0.80;;;;;;;;;;5074383;28;20028;-49
2022/04/24 12:56:46;;;;;;;3.13;0.90;;;;;;;;;;5074439;28;20032;-53
2022/04/24 12:59:11;;;;;;;1.02;0.68;;;;;;;;;;5074887;28;20449;-47
2022/04/24 13:01:39;;;;;;;2.53;0.80;;;;;;;;;;5074475;28;20028;-48
2022/04/24 13:04:06;;;;;;;3.45;1.20;;;;;;;;;;5074275;28;20183;-46
2022/04/24 13:06:32;;;;;;;1.85;0.77;;;;;;;;;;5074106;28;20032;-47
2022/04/24 13:08:58;;;;;;;3.13;1.08;;;;;;;;;;5074435;28;20371;-48
2022/04/24 13:11:25;;;;;;;2.90;0.70;;;;;;;;;;5073812;28;20071;-49
2022/04/24 13:13:52;;;;;;;2.05;0.85;;;;;;;;;;5074892;28;20419;-50
2022/04/24 13:19:24;;;;;;;3.53;1.35;;;;;;;;;;5049542;28;20044;-48
2022/04/24 13:21:52;;;;;;;4.90;0.80;;;;;;;;;;5032375;28;20064;-48
2022/04/24 13:24:18;;;;;;;1.17;0.93;;;;;;;;;;5048743;28;20496;-55
2022/04/24 13:26:44;;;;;;;4.45;0.93;;;;;;;;;;5074185;28;20094;-46
2022/04/24 13:29:10;;;;;;;4.05;0.98;;;;;;;;;;5073844;28;20486;-47
2022/04/24 13:31:36;;;;;;;2.20;1.15;;;;;;;;;;5073640;28;20036;-46
2022/04/24 13:34:02;;;;;;;2.92;0.60;;;;;;;;;;5074498;28;20028;-46
2022/04/24 13:36:28;;;;;;;2.03;0.73;;;;;;;;;;5073619;28;20381;-46
2022/04/24 13:38:54;;;;;;;3.40;0.60;;;;;;;;;;5074758;28;20047;-46
2022/04/24 13:41:20;;;;;;;1.75;0.60;;;;;;;;;;5073505;28;20043;-54
2022/04/24 13:43:48;;;;;;;2.35;0.93;;;;;;;;;;5073760;28;20029;-46
2022/04/24 13:46:14;;;;;;;1.65;0.70;;;;;;;;;;5073280;28;20369;-46
2022/04/24 13:48:40;;;;;;;1.50;0.80;;;;;;;;;;5073176;28;20146;-46
2022/04/24 13:51:06;;;;;;;3.15;0.70;;;;;;;;;;5074119;28;20032;-46
2022/04/24 13:53:33;;;;;;;2.30;1.00;;;;;;;;;;5072928;28;20032;-46
2022/04/24 13:55:59;;;;;;;1.25;0.65;;;;;;;;;;5074025;28;20535;-46
2022/04/24 13:58:26;;;;;;;2.10;0.60;;;;;;;;;;5072798;28;20416;-46
2022/04/24 14:00:55;;;;;;;2.15;0.70;;;;;;;;;;5073588;28;20035;-49
2022/04/24 14:03:22;;;;;;;1.75;0.50;;;;;;;;;;5073162;28;20090;-54
2022/04/24 14:05:49;;;;;;;2.47;0.60;;;;;;;;;;5073985;28;20078;-46
2022/04/24 14:08:16;;;;;;;5.25;1.15;;;;;;;;;;5073541;28;20063;-46
2022/04/24 14:10:45;;;;;;;0.73;0.40;;;;;;;;;;5073237;28;20020;-47
2022/04/24 14:13:11;;;;;;;6.43;1.10;;;;;;;;;;5073026;28;20029;-47
2022/04/24 14:15:38;;;;;;;1.65;0.52;;;;;;;;;;5073337;28;20044;-46
2022/04/24 14:18:04;;;;;;;3.15;1.17;;;;;;;;;;5073389;28;20027;-49
2022/04/24 14:20:30;;;;;;;1.05;0.50;;;;;;;;;;5072930;28;20025;-46
2022/04/24 14:22:57;;;;;;;1.10;0.43;;;;;;;;;;5073137;28;20024;-47
2022/04/24 14:25:23;;;;;;;0.55;0.40;;;;;;;;;;5072931;28;20024;-53
2022/04/24 14:27:49;;;;;;;1.10;0.73;;;;;;;;;;5072414;28;20404;-48
2022/04/24 14:30:16;;;;;;;1.00;0.55;;;;;;;;;;5073449;28;20020;-46
2022/04/24 14:32:42;;;;;;;1.90;0.70;;;;;;;;;;5072268;28;20028;-46
2022/04/24 14:35:09;;;;;;;0.80;0.63;;;;;;;;;;5073380;28;20032;-46
2022/04/24 14:37:35;;;;;;;1.30;0.52;;;;;;;;;;5072065;28;20027;-46
2022/04/24 14:40:02;;;;;;;1.33;0.47;;;;;;;;;;5072909;28;20528;-47
2022/04/24 14:42:28;;;;;;;1.55;0.50;;;;;;;;;;5071731;28;20045;-47
2022/04/24 14:44:54;;;;;;;3.35;0.60;;;;;;;;;;5073286;28;20057;-48
2022/04/24 14:55:44;;;;;;;0.80;0.50;;;;;;;;;;5071873;28;20082;-48
2022/04/24 14:58:11;;;;;;;2.05;0.70;;;;;;;;;;5073049;28;20457;-47
2022/04/24 15:00:40;;;;;;;2.05;0.88;;;;;;;;;;5071869;28;20461;-46
2022/04/24 15:03:07;;;;;;;3.28;0.47;;;;;;;;;;5068486;28;20409;-48